Time;durP1;ratioP1;P1;durP2;ratioP2;P2;SDS_P1;SDS_P2;PMS_P1;PMS_P2;Temp;Humidity;BMP_temperature;BMP_pressure;BME280_temperature;BME280_humidity;BME280_pressure;Samples;Min_cycle;Max_cycle;Signal;HPM_P1;HPM_P2
2023/03/07 00:00:37;;;;;;;21.90;12.40;;;;;;;5.71;61.01;99412.22;6174516;22;97122;-49
2023/03/07 00:03:03;;;;;;;24.47;12.00;;;;;;;5.75;60.93;99415.47;6172514;22;97937;-49
2023/03/07 00:05:28;;;;;;;21.13;11.90;;;;;;;5.77;61.07;99413.75;6173841;22;97268;-49
2023/03/07 00:07:54;;;;;;;19.10;11.30;;;;;;;5.80;61.29;99401.09;6174197;22;96516;-49
2023/03/07 00:10:19;;;;;;;20.20;12.80;;;;;;;5.76;61.17;99401.34;6174258;22;97330;-49
2023/03/07 00:12:44;;;;;;;21.80;12.00;;;;;;;5.76;61.30;99398.63;6173399;22;96979;-49
2023/03/07 00:15:10;;;;;;;22.07;12.67;;;;;;;5.79;61.28;99394.88;6174223;22;97684;-50
2023/03/07 00:17:36;;;;;;;22.80;12.60;;;;;;;5.80;61.31;99385.47;6174007;22;96934;-49
2023/03/07 00:20:07;;;;;;;20.93;12.70;;;;;;;5.78;61.67;99385.22;6175231;22;97019;-49
2023/03/07 00:22:34;;;;;;;21.50;11.93;;;;;;;5.77;61.59;99378.25;6173065;22;97271;-49
2023/03/07 00:24:59;;;;;;;19.60;12.00;;;;;;;5.75;61.38;99371.81;6173942;22;97025;-50
2023/03/07 00:27:24;;;;;;;23.67;12.37;;;;;;;5.74;61.76;99360.16;6173618;22;97190;-49
2023/03/07 00:29:50;;;;;;;25.53;13.37;;;;;;;5.78;61.71;99354.47;6174364;22;97026;-50
2023/03/07 00:32:15;;;;;;;21.10;12.17;;;;;;;5.81;61.77;99359.66;6173807;22;97186;-49
2023/03/07 00:34:41;;;;;;;22.53;12.80;;;;;;;5.83;61.89;99348.28;6173820;22;97194;-49
2023/03/07 00:37:06;;;;;;;19.70;11.43;;;;;;;5.86;61.93;99344.59;6174240;22;97298;-49
2023/03/07 00:39:32;;;;;;;19.07;11.60;;;;;;;5.86;61.42;99342.59;6174102;22;97155;-49
2023/03/07 00:41:58;;;;;;;18.00;11.20;;;;;;;5.88;61.64;99331.19;6172920;22;99617;-49
2023/03/07 00:44:25;;;;;;;19.07;12.50;;;;;;;5.86;61.36;99326.25;6174234;22;97101;-49
2023/03/07 00:46:51;;;;;;;16.10;10.73;;;;;;;5.87;61.71;99327.75;6174176;22;97408;-49
2023/03/07 00:49:17;;;;;;;17.80;10.90;;;;;;;5.87;61.81;99319.56;6173772;22;96673;-50
2023/03/07 00:51:42;;;;;;;18.10;10.97;;;;;;;5.88;62.01;99320.28;6173430;22;97418;-49
2023/03/07 00:54:07;;;;;;;19.00;10.40;;;;;;;5.87;61.72;99316.81;6173550;22;97089;-50
2023/03/07 00:56:33;;;;;;;19.70;10.37;;;;;;;5.85;62.13;99316.53;6173575;22;96866;-49
2023/03/07 00:58:58;;;;;;;16.17;9.83;;;;;;;5.84;62.05;99301.44;6173515;22;98239;-49
2023/03/07 01:01:24;;;;;;;17.20;10.13;;;;;;;5.80;62.16;99298.16;6173483;22;97373;-49
2023/03/07 01:03:53;;;;;;;17.83;11.23;;;;;;;5.81;62.35;99291.47;6173336;22;97158;-49
2023/03/07 01:06:21;;;;;;;18.33;9.67;;;;;;;5.80;62.12;99287.25;6174426;22;97342;-49
2023/03/07 01:08:46;;;;;;;22.43;11.90;;;;;;;5.75;62.33;99279.03;6173237;22;97017;-49
2023/03/07 01:11:12;;;;;;;16.43;9.80;;;;;;;5.76;62.52;99278.56;6173399;22;97153;-50
2023/03/07 01:13:37;;;;;;;17.93;9.90;;;;;;;5.76;62.63;99269.63;6173539;22;97055;-49
2023/03/07 01:16:30;;;;;;;18.80;9.83;;;;;;;5.76;63.53;99264.16;6173589;22;97006;-49
2023/03/07 01:18:58;;;;;;;20.07;9.97;;;;;;;5.71;62.59;99251.25;6168125;22;97614;-49
2023/03/07 01:21:29;;;;;;;17.20;9.93;;;;;;;5.67;63.29;99240.59;6173190;22;97111;-49
2023/03/07 01:23:55;;;;;;;19.13;10.13;;;;;;;5.63;62.97;99242.81;6174027;22;97417;-49
2023/03/07 01:26:22;;;;;;;15.93;9.27;;;;;;;5.66;63.07;99247.28;6174152;22;96906;-49
2023/03/07 01:28:55;;;;;;;15.87;9.57;;;;;;;5.67;63.35;99228.94;6173276;22;96905;-48
2023/03/07 01:31:21;;;;;;;14.83;9.43;;;;;;;5.68;63.30;99231.16;6173446;22;97327;-50
2023/03/07 01:33:48;;;;;;;14.60;9.13;;;;;;;5.67;63.20;99218.78;6174028;22;96747;-49
2023/03/07 01:36:19;;;;;;;16.10;8.70;;;;;;;5.66;63.44;99222.72;6173543;22;96857;-49
2023/03/07 01:38:48;;;;;;;13.07;8.30;;;;;;;5.67;63.51;99213.31;6173242;22;97075;-50
2023/03/07 01:41:14;;;;;;;16.27;9.70;;;;;;;5.68;63.08;99214.78;6172608;22;97372;-49
2023/03/07 01:43:39;;;;;;;16.53;9.67;;;;;;;5.70;63.17;99209.59;6173019;22;97153;-50
2023/03/07 01:46:17;;;;;;;16.03;8.70;;;;;;;5.71;63.51;99205.63;6173775;22;97028;-49
2023/03/07 01:49:23;;;;;;;13.23;8.20;;;;;;;5.70;64.58;99201.41;6173178;22;96962;-49
2023/03/07 01:51:55;;;;;;;17.97;9.60;;;;;;;5.70;63.42;99195.22;6020983;23;96731;-49
2023/03/07 01:54:23;;;;;;;15.27;9.53;;;;;;;5.68;63.56;99192.97;6022616;23;97814;-49
2023/03/07 01:56:51;;;;;;;13.27;8.40;;;;;;;5.66;63.85;99183.78;6103163;22;97279;-49
2023/03/07 01:59:28;;;;;;;14.30;8.60;;;;;;;5.70;63.43;99179.56;6175029;22;96565;-49
2023/03/07 02:01:54;;;;;;;15.23;9.37;;;;;;;5.68;63.51;99176.59;6174167;22;96751;-49
2023/03/07 02:04:31;;;;;;;13.50;8.87;;;;;;;5.71;64.16;99169.41;6174286;22;97145;-49
2023/03/07 02:06:56;;;;;;;13.70;8.23;;;;;;;5.69;63.57;99166.44;6174168;22;97287;-50
2023/03/07 02:09:23;;;;;;;15.07;8.70;;;;;;;5.68;63.51;99165.69;6174986;22;97153;-49
2023/03/07 02:11:49;;;;;;;13.47;8.53;;;;;;;5.68;63.82;99159.50;6173717;22;96608;-51
2023/03/07 02:14:14;;;;;;;13.27;8.47;;;;;;;5.70;63.81;99157.75;6174645;22;97027;-49
2023/03/07 02:16:40;;;;;;;16.97;9.07;;;;;;;5.72;63.99;99154.53;6175290;22;97635;-49
2023/03/07 02:19:20;;;;;;;12.50;7.50;;;;;;;5.73;63.98;99140.41;6174856;22;96874;-48
2023/03/07 02:22:02;;;;;;;13.90;8.23;;;;;;;5.76;64.10;99149.56;6174002;22;97020;-49
2023/03/07 02:24:34;;;;;;;11.90;6.80;;;;;;;5.77;63.94;99151.06;6174972;22;97174;-50
2023/03/07 02:26:59;;;;;;;11.20;7.40;;;;;;;5.75;63.80;99142.63;6174780;22;96556;-50
2023/03/07 02:29:24;;;;;;;12.23;7.83;;;;;;;5.74;64.44;99144.63;6175021;22;96599;-50
2023/03/07 02:31:50;;;;;;;11.37;7.43;;;;;;;5.73;64.26;99132.22;6173330;22;111418;-49
2023/03/07 02:34:21;;;;;;;10.77;7.03;;;;;;;5.79;64.11;99130.22;6174053;22;107791;-50
2023/03/07 02:36:50;;;;;;;11.70;7.40;;;;;;;5.81;64.03;99127.75;6174486;22;96484;-51
2023/03/07 02:39:17;;;;;;;13.70;7.17;;;;;;;5.83;63.85;99127.25;6174796;22;97302;-51
2023/03/07 02:41:42;;;;;;;10.13;7.30;;;;;;;5.84;64.32;99126.78;6174003;22;97241;-49
2023/03/07 02:44:08;;;;;;;10.43;6.80;;;;;;;5.85;64.20;99130.28;6174393;22;96931;-50
2023/03/07 02:46:33;;;;;;;10.23;7.13;;;;;;;5.84;64.75;99129.53;6174419;22;96928;-50
2023/03/07 02:48:58;;;;;;;9.93;6.87;;;;;;;5.85;64.64;99124.81;6174607;22;99234;-51
2023/03/07 02:51:24;;;;;;;11.53;7.43;;;;;;;5.86;64.57;99121.56;6173809;22;113513;-50
2023/03/07 02:53:49;;;;;;;11.50;7.30;;;;;;;5.90;64.36;99121.31;6174794;22;96887;-49
2023/03/07 02:56:14;;;;;;;10.17;6.57;;;;;;;5.92;64.19;99125.03;6174469;22;97489;-50
2023/03/07 02:58:40;;;;;;;9.57;6.70;;;;;;;5.96;64.39;99113.91;6174445;22;97100;-50
2023/03/07 03:01:05;;;;;;;9.90;6.03;;;;;;;6.00;64.53;99117.09;6174228;22;97727;-51
2023/03/07 03:03:31;;;;;;;8.97;6.33;;;;;;;6.02;64.57;99118.09;6174126;22;97093;-50
2023/03/07 03:05:56;;;;;;;10.10;6.43;;;;;;;6.03;64.43;99121.56;6174151;22;99209;-50
2023/03/07 03:08:21;;;;;;;10.27;6.77;;;;;;;6.09;64.47;99121.56;6175214;22;97037;-50
2023/03/07 03:10:54;;;;;;;8.50;5.73;;;;;;;6.15;64.40;99125.03;6174317;22;97800;-50
2023/03/07 03:13:19;;;;;;;9.70;6.90;;;;;;;6.13;64.52;99113.84;6175342;22;97199;-50
2023/03/07 03:15:45;;;;;;;9.67;6.53;;;;;;;6.15;64.76;99112.13;6174685;22;97158;-49
2023/03/07 03:18:10;;;;;;;9.00;6.27;;;;;;;6.16;64.52;99115.59;6174686;22;97025;-49
2023/03/07 03:20:38;;;;;;;8.17;5.93;;;;;;;6.20;64.58;99114.09;6173772;22;98339;-51
2023/03/07 03:23:04;;;;;;;8.60;6.20;;;;;;;6.20;64.33;99116.09;6175157;22;97873;-49
2023/03/07 03:25:29;;;;;;;7.17;5.33;;;;;;;6.23;64.80;99112.34;6174766;22;96578;-51
2023/03/07 03:27:54;;;;;;;8.13;5.67;;;;;;;6.25;64.59;99128.97;6174632;22;97389;-51
2023/03/07 03:30:20;;;;;;;6.23;5.13;;;;;;;6.26;64.58;99125.00;6174736;22;97236;-49
2023/03/07 03:32:45;;;;;;;8.90;6.30;;;;;;;6.28;64.44;99125.25;6173842;22;97723;-50
2023/03/07 03:35:11;;;;;;;6.90;5.33;;;;;;;6.30;64.60;99128.22;6174755;22;96935;-51
2023/03/07 03:37:37;;;;;;;7.10;5.50;;;;;;;6.28;64.71;99120.53;6174680;22;97075;-50
2023/03/07 03:40:12;;;;;;;8.03;5.93;;;;;;;6.28;64.67;99122.53;6174680;22;97132;-50
2023/03/07 03:42:38;;;;;;;7.20;5.50;;;;;;;6.25;64.28;99118.78;6173060;22;97080;-50
2023/03/07 03:45:05;;;;;;;9.30;6.60;;;;;;;6.30;64.50;99120.03;6174092;22;96597;-49
2023/03/07 03:47:30;;;;;;;6.70;5.53;;;;;;;6.32;64.63;99123.75;6172971;22;97384;-50
2023/03/07 03:49:55;;;;;;;7.53;5.90;;;;;;;6.37;64.49;99122.25;6173616;22;106122;-51
2023/03/07 03:52:22;;;;;;;7.67;5.53;;;;;;;6.39;64.46;99120.50;6173784;22;106274;-49
2023/03/07 03:54:48;;;;;;;8.23;5.40;;;;;;;6.41;64.28;99123.50;6174521;22;96943;-50
2023/03/07 03:57:16;;;;;;;8.30;6.10;;;;;;;6.42;64.25;99133.16;6174984;22;97600;-49
2023/03/07 03:59:42;;;;;;;8.00;5.83;;;;;;;6.42;64.37;99119.50;6174109;22;97747;-50
2023/03/07 04:02:07;;;;;;;8.13;5.53;;;;;;;6.46;64.62;99120.00;6174397;22;97104;-49
2023/03/07 04:04:32;;;;;;;8.47;6.13;;;;;;;6.45;64.34;99123.97;6174280;22;97186;-49
2023/03/07 04:06:58;;;;;;;9.67;5.57;;;;;;;6.45;64.42;99115.78;6174081;22;96791;-50
2023/03/07 04:09:23;;;;;;;8.50;6.70;;;;;;;6.47;64.37;99118.00;6173268;22;97325;-49
2023/03/07 04:11:48;;;;;;;8.40;5.37;;;;;;;6.49;64.64;99123.69;6173079;22;104865;-49
2023/03/07 04:14:14;;;;;;;8.23;6.03;;;;;;;6.49;64.83;99116.25;6174500;22;97306;-50
2023/03/07 04:16:39;;;;;;;7.40;5.67;;;;;;;6.47;64.63;99112.53;6173398;22;96898;-50
2023/03/07 04:19:04;;;;;;;7.47;5.63;;;;;;;6.49;64.65;99113.53;6173470;22;103157;-51
2023/03/07 04:21:30;;;;;;;6.40;4.97;;;;;;;6.54;64.45;99107.31;6174095;22;96603;-50
2023/03/07 04:23:57;;;;;;;7.30;5.53;;;;;;;6.54;64.26;99103.81;6174531;22;96737;-49
2023/03/07 04:26:22;;;;;;;7.77;6.20;;;;;;;6.53;64.54;99094.16;6175162;22;96949;-49
2023/03/07 04:28:48;;;;;;;8.27;5.60;;;;;;;6.54;64.66;99093.66;6172948;22;97280;-50
2023/03/07 04:31:15;;;;;;;9.10;5.60;;;;;;;6.56;64.41;99093.13;6173946;22;97327;-49
2023/03/07 04:33:41;;;;;;;8.97;6.23;;;;;;;6.55;64.60;99092.38;6170974;22;97437;-49
2023/03/07 04:36:07;;;;;;;7.70;5.90;;;;;;;6.56;64.57;99084.94;6173859;22;96727;-49
2023/03/07 04:38:32;;;;;;;10.97;6.00;;;;;;;6.58;64.72;99087.91;6173252;22;97365;-50
2023/03/07 04:40:58;;;;;;;6.13;5.10;;;;;;;6.58;64.81;99079.72;6173291;22;97154;-49
2023/03/07 04:43:23;;;;;;;9.40;5.33;;;;;;;6.58;64.26;99083.19;6173312;22;97169;-49
2023/03/07 04:45:48;;;;;;;7.50;5.50;;;;;;;6.59;64.72;99075.75;6174255;22;97138;-49
2023/03/07 04:48:14;;;;;;;7.30;6.30;;;;;;;6.57;64.53;99070.81;6173853;22;96963;-50
2023/03/07 04:50:39;;;;;;;11.03;7.10;;;;;;;6.56;64.56;99074.75;6172477;22;105282;-50
2023/03/07 04:53:04;;;;;;;11.80;7.63;;;;;;;6.56;64.70;99066.56;6172855;22;96895;-50
2023/03/07 04:55:29;;;;;;;7.13;5.40;;;;;;;6.58;64.38;99061.34;6174065;22;97575;-49
2023/03/07 04:57:56;;;;;;;6.73;5.00;;;;;;;6.60;64.65;99071.75;6172920;22;97285;-49
2023/03/07 05:00:23;;;;;;;8.73;5.87;;;;;;;6.62;64.59;99059.09;6173984;22;96895;-49
2023/03/07 05:02:49;;;;;;;7.60;5.37;;;;;;;6.64;64.70;99064.06;6173460;22;97345;-50
2023/03/07 05:05:15;;;;;;;7.10;5.40;;;;;;;6.61;64.69;99068.53;6173636;22;97007;-49
2023/03/07 05:07:41;;;;;;;6.47;4.50;;;;;;;6.66;64.94;99064.31;6172941;22;97287;-49
2023/03/07 05:10:08;;;;;;;6.43;4.80;;;;;;;6.63;64.55;99076.22;6171050;22;97089;-51
2023/03/07 05:12:34;;;;;;;8.73;5.57;;;;;;;6.61;64.66;99073.25;6170876;22;97417;-50
2023/03/07 05:14:59;;;;;;;5.53;4.60;;;;;;;6.59;64.61;99073.78;6173574;22;97031;-49
2023/03/07 05:17:25;;;;;;;7.20;5.10;;;;;;;6.57;64.61;99070.81;6171787;22;98573;-50
2023/03/07 05:19:51;;;;;;;5.60;4.30;;;;;;;6.56;64.83;99063.09;6172078;22;97160;-49
2023/03/07 05:22:16;;;;;;;4.97;3.70;;;;;;;6.56;64.43;99065.81;6170347;22;97068;-49
2023/03/07 05:24:41;;;;;;;4.03;3.63;;;;;;;6.54;64.43;99065.59;6170833;22;97229;-49
2023/03/07 05:27:07;;;;;;;4.63;3.60;;;;;;;6.48;64.42;99057.44;6173326;22;101985;-49
2023/03/07 05:29:32;;;;;;;4.50;3.70;;;;;;;6.46;64.64;99056.44;6173201;22;108082;-51
2023/03/07 05:31:57;;;;;;;5.10;3.00;;;;;;;6.45;64.74;99052.94;6173036;22;97016;-51
2023/03/07 05:34:23;;;;;;;3.70;3.20;;;;;;;6.42;64.32;99053.22;6175364;22;96888;-50
2023/03/07 05:36:48;;;;;;;3.67;3.37;;;;;;;6.37;64.62;99053.97;6174064;22;96558;-50
2023/03/07 05:39:14;;;;;;;3.27;2.37;;;;;;;6.34;64.62;99038.59;6174856;22;96953;-49
2023/03/07 05:41:40;;;;;;;1.83;1.73;;;;;;;6.36;64.46;99047.03;6174934;22;96957;-50
2023/03/07 05:44:06;;;;;;;3.97;1.93;;;;;;;6.33;64.62;99048.78;6175166;22;97132;-50
2023/03/07 05:46:31;;;;;;;2.70;1.83;;;;;;;6.35;64.42;99045.56;6173651;22;97331;-50
2023/03/07 05:48:56;;;;;;;1.60;1.50;;;;;;;6.34;63.87;99044.06;6174032;22;96638;-49
2023/03/07 05:51:22;;;;;;;2.87;1.33;;;;;;;6.33;64.33;99039.84;6175082;22;96761;-49
2023/03/07 05:53:47;;;;;;;1.20;1.07;;;;;;;6.32;64.08;99041.84;6175223;22;96394;-50
2023/03/07 05:56:13;;;;;;;1.50;1.40;;;;;;;6.32;64.03;99052.00;6174547;22;96725;-50
2023/03/07 05:58:38;;;;;;;1.37;1.17;;;;;;;6.33;64.39;99058.97;6174920;22;97186;-49
2023/03/07 06:01:04;;;;;;;1.53;0.97;;;;;;;6.32;64.05;99052.00;6174546;22;96900;-50
2023/03/07 06:03:30;;;;;;;2.67;1.00;;;;;;;6.32;63.79;99054.72;6175065;22;96992;-51
2023/03/07 06:05:55;;;;;;;0.73;0.73;;;;;;;6.34;63.90;99052.25;6173795;22;97922;-50
2023/03/07 06:08:21;;;;;;;1.43;1.13;;;;;;;6.33;63.93;99056.22;6174835;22;97307;-49
2023/03/07 06:10:51;;;;;;;1.07;0.70;;;;;;;6.36;64.09;99063.41;6173864;22;96917;-50
2023/03/07 06:13:19;;;;;;;0.70;0.70;;;;;;;6.35;63.98;99070.88;6174910;22;97042;-49
2023/03/07 06:15:51;;;;;;;1.20;1.00;;;;;;;6.35;63.87;99067.41;6174694;22;97294;-49
2023/03/07 06:18:17;;;;;;;3.90;1.40;;;;;;;6.34;63.93;99071.34;6172434;22;97026;-51
2023/03/07 06:20:42;;;;;;;4.47;0.97;;;;;;;6.34;63.70;99071.34;6174655;22;96607;-49
2023/03/07 06:23:08;;;;;;;3.37;1.30;;;;;;;6.36;64.32;99071.59;6174032;22;97051;-49
2023/03/07 06:25:33;;;;;;;2.10;1.00;;;;;;;6.35;64.00;99073.59;6174588;22;97067;-50
2023/03/07 06:28:00;;;;;;;9.70;1.00;;;;;;;6.35;63.95;99070.88;6174824;22;97335;-49
2023/03/07 06:30:26;;;;;;;2.97;0.70;;;;;;;6.36;64.20;99074.31;6174993;22;96928;-50
2023/03/07 06:32:51;;;;;;;2.23;0.60;;;;;;;6.38;64.10;99071.84;6174039;22;96928;-49
2023/03/07 06:35:17;;;;;;;1.90;0.97;;;;;;;6.39;63.48;99073.34;6173986;22;97237;-50
2023/03/07 06:37:42;;;;;;;2.20;0.97;;;;;;;6.40;63.79;99066.66;6173201;22;110052;-52
2023/03/07 06:40:09;;;;;;;1.47;0.73;;;;;;;6.40;63.80;99069.38;6174741;22;96979;-49
2023/03/07 06:42:35;;;;;;;0.70;0.40;;;;;;;6.36;63.76;99066.13;6174484;22;96985;-49
2023/03/07 06:45:00;;;;;;;1.27;0.70;;;;;;;6.36;63.64;99066.13;6174095;22;97248;-49
2023/03/07 06:47:26;;;;;;;2.80;0.60;;;;;;;6.40;63.76;99075.56;6174059;22;96741;-50
2023/03/07 06:49:52;;;;;;;5.50;0.70;;;;;;;6.46;63.90;99070.09;6174102;22;96670;-51
2023/03/07 06:52:17;;;;;;;3.13;0.87;;;;;;;6.43;63.74;99077.28;6175044;22;97014;-49
2023/03/07 06:54:43;;;;;;;1.17;0.70;;;;;;;6.49;63.64;99082.72;6174550;22;97034;-49
2023/03/07 06:57:08;;;;;;;1.53;0.77;;;;;;;6.52;63.85;99087.94;6173869;22;98072;-49
2023/03/07 06:59:33;;;;;;;2.63;1.37;;;;;;;6.57;63.35;99083.72;6174366;22;97783;-50
2023/03/07 07:02:02;;;;;;;5.23;1.33;;;;;;;6.58;63.59;99087.91;6174356;22;96950;-49
2023/03/07 07:04:27;;;;;;;2.13;0.70;;;;;;;6.62;63.92;99089.13;6173568;22;96933;-49
2023/03/07 07:06:52;;;;;;;3.57;0.53;;;;;;;6.67;63.53;99093.84;6173872;22;97083;-49
2023/03/07 07:09:18;;;;;;;0.60;0.60;;;;;;;6.72;63.64;99084.16;6173967;22;96990;-49
2023/03/07 07:11:43;;;;;;;6.67;0.83;;;;;;;6.80;63.30;99085.09;6174535;22;97295;-49
2023/03/07 07:14:08;;;;;;;2.43;0.83;;;;;;;6.82;63.20;99080.63;6174129;22;96531;-51
2023/03/07 07:16:35;;;;;;;2.30;0.80;;;;;;;6.85;63.28;99087.06;6174429;22;96780;-48
2023/03/07 07:19:00;;;;;;;2.10;0.70;;;;;;;6.89;63.55;99087.53;6174482;22;97393;-49
2023/03/07 07:21:25;;;;;;;2.40;0.70;;;;;;;6.94;63.21;99086.78;6174399;22;96977;-49
2023/03/07 07:23:51;;;;;;;2.87;0.57;;;;;;;6.96;63.48;99078.81;6172920;22;104848;-49
2023/03/07 07:26:16;;;;;;;0.83;0.63;;;;;;;6.98;63.19;99087.25;6174053;22;97218;-49
2023/03/07 07:28:41;;;;;;;2.17;0.73;;;;;;;7.01;62.82;99091.69;6173289;22;97588;-50
2023/03/07 07:31:06;;;;;;;3.47;0.90;;;;;;;7.04;63.42;99087.94;6173950;22;96673;-49
2023/03/07 07:33:32;;;;;;;1.40;0.60;;;;;;;7.06;63.14;99095.63;6174504;22;97701;-48
2023/03/07 07:35:57;;;;;;;3.80;1.00;;;;;;;7.11;62.89;99084.69;6173417;22;96575;-50
2023/03/07 07:38:23;;;;;;;4.23;0.87;;;;;;;7.17;62.90;99082.66;6173905;22;96613;-49
2023/03/07 07:40:48;;;;;;;1.60;0.80;;;;;;;7.22;63.06;99086.59;6173942;22;97078;-49
2023/03/07 07:43:15;;;;;;;2.53;0.70;;;;;;;7.26;62.88;99092.53;6174119;22;97449;-49
2023/03/07 07:45:41;;;;;;;3.00;0.80;;;;;;;7.25;62.57;99094.53;6173946;22;97024;-50
2023/03/07 07:48:07;;;;;;;7.37;1.30;;;;;;;7.29;62.82;99103.22;6171602;22;96578;-49
2023/03/07 07:50:32;;;;;;;6.50;0.73;;;;;;;7.32;62.93;99091.25;6173348;22;97021;-50
2023/03/07 07:52:57;;;;;;;0.97;0.87;;;;;;;7.37;62.95;99093.22;6173030;22;101979;-50
2023/03/07 07:55:23;;;;;;;1.20;0.83;;;;;;;7.45;62.81;99098.88;6173669;22;96901;-49
2023/03/07 07:57:49;;;;;;;5.57;1.37;;;;;;;7.48;62.74;99093.16;6173317;22;97002;-51
2023/03/07 08:00:19;;;;;;;3.50;0.93;;;;;;;7.53;62.55;99097.81;6173905;22;96879;-50
2023/03/07 08:02:49;;;;;;;1.67;0.80;;;;;;;7.56;62.61;99099.53;6173957;22;97292;-50
2023/03/07 08:05:15;;;;;;;4.00;1.07;;;;;;;7.60;62.34;99088.31;6172180;22;98465;-49
2023/03/07 08:07:40;;;;;;;3.37;1.10;;;;;;;7.63;62.29;99083.81;6173740;22;96547;-50
2023/03/07 08:10:06;;;;;;;8.43;1.20;;;;;;;7.68;62.19;99094.00;6173931;22;96937;-49
2023/03/07 08:12:32;;;;;;;2.83;1.30;;;;;;;7.68;62.33;99105.69;6173263;22;98010;-50
2023/03/07 08:14:57;;;;;;;2.23;1.20;;;;;;;7.70;62.00;99094.97;6173449;22;96780;-50
2023/03/07 08:17:23;;;;;;;6.37;1.20;;;;;;;7.73;62.12;99096.69;6174145;22;96611;-49
2023/03/07 08:19:48;;;;;;;5.20;1.20;;;;;;;7.76;62.00;99105.84;6173792;22;96955;-50
2023/03/07 08:22:13;;;;;;;2.47;0.77;;;;;;;7.73;62.03;99093.22;6172944;22;106100;-49
2023/03/07 08:24:38;;;;;;;4.50;1.30;;;;;;;7.74;62.07;99105.63;6173505;22;97200;-49
2023/03/07 08:27:04;;;;;;;11.37;1.40;;;;;;;7.78;61.92;99106.09;6173233;22;97712;-50
2023/03/07 08:29:29;;;;;;;2.30;1.30;;;;;;;7.80;61.83;99104.34;6174982;22;97138;-49
2023/03/07 08:31:55;;;;;;;2.27;1.47;;;;;;;7.84;62.01;99104.78;6172833;22;97732;-50
2023/03/07 08:34:20;;;;;;;2.33;1.03;;;;;;;7.87;61.71;99108.50;6173881;22;96895;-49
2023/03/07 08:36:45;;;;;;;1.80;1.13;;;;;;;7.86;61.66;99107.78;6173349;22;97271;-50
2023/03/07 08:39:11;;;;;;;5.67;1.20;;;;;;;7.82;61.36;99099.09;6173408;22;96581;-50
2023/03/07 08:41:37;;;;;;;3.03;1.10;;;;;;;7.88;61.76;99110.00;6173301;22;96564;-51
2023/03/07 08:44:03;;;;;;;2.80;0.90;;;;;;;7.89;61.60;99108.72;6172558;22;96922;-50
2023/03/07 08:46:29;;;;;;;1.80;1.10;;;;;;;7.87;61.34;99105.75;6173603;22;97193;-50
2023/03/07 08:48:55;;;;;;;2.67;1.40;;;;;;;7.85;61.19;99111.00;6173878;22;97348;-50
2023/03/07 08:51:20;;;;;;;2.20;1.00;;;;;;;7.83;61.48;99108.78;6174087;22;97794;-49
2023/03/07 08:53:46;;;;;;;6.80;1.13;;;;;;;7.82;61.52;99099.09;6174094;22;96949;-50
2023/03/07 08:56:14;;;;;;;3.03;1.30;;;;;;;7.86;61.46;99098.81;6173594;22;96678;-49
2023/03/07 08:58:40;;;;;;;1.30;1.20;;;;;;;7.85;61.11;99113.75;6173436;22;97327;-51
2023/03/07 09:01:07;;;;;;;2.50;0.60;;;;;;;7.80;61.07;99109.81;6172092;22;97173;-49
2023/03/07 09:03:33;;;;;;;2.30;0.70;;;;;;;7.78;61.55;99115.03;6172699;22;96917;-50
2023/03/07 09:05:59;;;;;;;1.13;1.00;;;;;;;7.80;61.56;99117.28;6173579;22;96853;-50
2023/03/07 09:08:25;;;;;;;1.73;1.00;;;;;;;7.79;61.00;99119.28;6173277;22;96624;-50
2023/03/07 09:10:50;;;;;;;3.27;1.00;;;;;;;7.78;61.60;99117.03;6145098;22;97122;-50
2023/03/07 09:13:17;;;;;;;1.20;0.90;;;;;;;7.80;61.23;99107.06;6172825;22;96836;-49
2023/03/07 09:15:43;;;;;;;4.80;0.70;;;;;;;7.80;61.23;99120.03;6173513;22;97030;-49
2023/03/07 09:18:08;;;;;;;1.10;0.67;;;;;;;7.80;61.11;99126.22;6173354;22;97028;-52
2023/03/07 09:20:33;;;;;;;4.87;1.10;;;;;;;7.79;61.21;99119.28;6173399;22;96922;-50
2023/03/07 09:22:59;;;;;;;1.37;0.80;;;;;;;7.84;61.39;99115.03;6172949;22;97124;-49
2023/03/07 09:25:24;;;;;;;1.20;0.90;;;;;;;7.88;61.30;99120.94;6173264;22;96624;-49
2023/03/07 09:27:52;;;;;;;5.67;0.93;;;;;;;7.93;61.27;99122.91;6173549;22;96695;-49
2023/03/07 09:30:17;;;;;;;1.47;0.90;;;;;;;7.97;61.15;99117.88;6173046;22;97516;-50
2023/03/07 09:32:43;;;;;;;0.70;0.60;;;;;;;7.95;61.15;99121.13;6172749;22;97001;-49
2023/03/07 09:35:09;;;;;;;2.40;0.80;;;;;;;7.96;61.01;99119.88;6172658;22;96886;-50
2023/03/07 09:37:34;;;;;;;3.63;1.07;;;;;;;7.93;60.63;99126.38;6173520;22;96888;-50
2023/03/07 09:40:00;;;;;;;3.13;0.60;;;;;;;7.87;60.97;99120.19;6173006;22;97695;-50
2023/03/07 09:42:35;;;;;;;3.87;1.10;;;;;;;7.80;61.12;99142.66;6172242;22;97023;-50
2023/03/07 09:45:15;;;;;;;1.00;0.80;;;;;;;7.81;61.17;99135.19;6173838;22;96946;-50
2023/03/07 09:48:09;;;;;;;0.83;0.83;;;;;;;7.72;61.13;99139.00;6173345;22;96499;-50
2023/03/07 09:50:52;;;;;;;0.70;0.60;;;;;;;7.61;61.61;99135.59;6172360;22;97293;-50
2023/03/07 09:53:20;;;;;;;2.40;0.77;;;;;;;7.51;61.70;99130.41;6173294;22;96623;-51
2023/03/07 09:55:46;;;;;;;6.80;0.93;;;;;;;7.45;61.92;99137.19;6173864;22;97035;-51
2023/03/07 09:58:20;;;;;;;1.47;0.57;;;;;;;7.50;62.23;99139.13;6173156;22;96445;-50
2023/03/07 10:00:49;;;;;;;1.40;0.70;;;;;;;7.51;61.87;99135.16;6173362;22;96788;-50
2023/03/07 10:03:26;;;;;;;1.57;0.87;;;;;;;7.52;62.06;99137.38;6171412;22;96602;-51
2023/03/07 10:05:56;;;;;;;3.50;0.70;;;;;;;7.49;62.02;99137.66;6173753;22;96562;-50
2023/03/07 10:08:28;;;;;;;2.17;0.70;;;;;;;7.51;62.19;99133.16;6173319;22;97403;-50
2023/03/07 10:11:31;;;;;;;3.80;1.10;;;;;;;7.51;61.94;99135.16;6173119;22;97255;-51
2023/03/07 10:14:06;;;;;;;2.53;0.70;;;;;;;7.55;61.77;99141.84;6172781;22;97036;-52
2023/03/07 10:16:44;;;;;;;4.03;0.93;;;;;;;7.60;61.91;99143.03;6173614;22;97100;-51
2023/03/07 10:19:15;;;;;;;2.50;0.60;;;;;;;7.68;62.10;99140.50;6174022;22;96880;-50
2023/03/07 10:22:13;;;;;;;1.40;0.70;;;;;;;7.67;62.12;99136.28;6174271;22;96821;-50
2023/03/07 10:24:42;;;;;;;2.77;0.77;;;;;;;7.62;61.92;99139.81;6096393;22;97105;-51
2023/03/07 10:27:09;;;;;;;1.60;0.63;;;;;;;7.55;61.66;99147.31;6174169;22;97178;-51
2023/03/07 10:29:47;;;;;;;4.53;0.63;;;;;;;7.54;61.59;99145.84;6174678;22;96914;-51
2023/03/07 10:32:32;;;;;;;5.93;0.57;;;;;;;7.53;61.81;99144.34;6173921;22;97202;-50
2023/03/07 10:35:19;;;;;;;1.43;0.60;;;;;;;7.56;62.00;99148.03;6173794;22;97160;-53
2023/03/07 10:37:55;;;;;;;1.27;0.60;;;;;;;7.58;62.13;99157.25;6174135;22;96878;-51
2023/03/07 10:40:22;;;;;;;1.80;0.40;;;;;;;7.59;61.96;99152.53;6174655;22;96750;-51
2023/03/07 10:42:48;;;;;;;0.90;0.40;;;;;;;7.56;61.95;99154.28;6173724;22;97275;-51
2023/03/07 10:45:14;;;;;;;1.93;0.50;;;;;;;7.60;61.70;99153.25;6173919;22;97009;-50
2023/03/07 10:47:40;;;;;;;2.20;0.60;;;;;;;7.59;62.00;99152.53;6174279;22;96846;-51
2023/03/07 10:50:35;;;;;;;1.13;0.47;;;;;;;7.52;61.47;99156.53;6174677;22;96591;-51
2023/03/07 10:53:02;;;;;;;1.87;0.63;;;;;;;7.48;62.05;99153.34;6173799;22;97907;-50
2023/03/07 10:55:36;;;;;;;1.03;0.53;;;;;;;7.46;61.95;99144.16;6174214;22;96572;-51
2023/03/07 10:58:21;;;;;;;2.93;0.63;;;;;;;7.46;62.35;99144.91;6174138;22;96917;-52
2023/03/07 11:01:01;;;;;;;2.97;1.27;;;;;;;7.51;62.24;99141.34;6175774;22;97136;-50
2023/03/07 11:04:04;;;;;;;1.33;0.60;;;;;;;7.45;62.01;99142.66;6174320;22;96933;-51
2023/03/07 11:06:39;;;;;;;0.77;0.47;;;;;;;7.47;61.97;99146.38;6173979;22;96930;-52
2023/03/07 11:09:17;;;;;;;1.23;0.40;;;;;;;7.54;62.15;99134.13;6173562;22;97469;-51
2023/03/07 11:11:49;;;;;;;1.80;0.50;;;;;;;7.56;61.97;99128.91;6174685;22;97201;-53
2023/03/07 11:14:15;;;;;;;1.27;0.70;;;;;;;7.64;61.77;99131.84;6173759;22;97861;-51
2023/03/07 11:16:50;;;;;;;0.90;0.60;;;;;;;7.66;61.22;99129.34;6173715;22;109034;-51
2023/03/07 11:19:43;;;;;;;6.30;0.90;;;;;;;7.64;61.39;99132.59;6174102;22;96474;-52
2023/03/07 11:22:20;;;;;;;2.20;0.60;;;;;;;7.74;61.62;99133.75;6167197;22;97284;-50
2023/03/07 11:24:50;;;;;;;0.70;0.70;;;;;;;7.83;61.61;99133.44;6174392;22;97647;-50
2023/03/07 11:27:21;;;;;;;0.60;0.53;;;;;;;7.85;61.12;99135.66;6174129;22;97066;-50
2023/03/07 11:30:06;;;;;;;0.40;0.40;;;;;;;7.91;61.23;99139.81;6174798;22;96494;-50
2023/03/07 11:32:35;;;;;;;0.97;0.60;;;;;;;7.98;61.10;99131.06;6174140;22;96800;-50
2023/03/07 11:35:12;;;;;;;1.93;0.70;;;;;;;8.06;61.09;99129.25;6172035;22;96703;-53
2023/03/07 11:37:52;;;;;;;0.83;0.50;;;;;;;8.08;60.90;99137.69;6173822;22;98115;-51
2023/03/07 11:40:44;;;;;;;0.63;0.50;;;;;;;8.10;60.43;99134.44;6174368;22;97055;-50
2023/03/07 11:43:26;;;;;;;1.27;0.60;;;;;;;8.07;60.46;99138.94;6174191;22;96639;-50